Time;durP1;ratioP1;P1;durP2;ratioP2;P2;SDS_P1;SDS_P2;PMS_P1;PMS_P2;Temp;Humidity;BMP_temperature;BMP_pressure;BME280_temperature;BME280_humidity;BME280_pressure;Samples;Min_cycle;Max_cycle;Signal;HPM_P1;HPM_P2
2022/08/02 00:02:18;;;;;;;3.90;1.17;;;23.60;72.00;;;;;;4974067;28;20023;-71
2022/08/02 00:04:44;;;;;;;3.58;1.30;;;23.60;72.20;;;;;;4974241;28;20027;-72
2022/08/02 00:07:10;;;;;;;3.08;1.35;;;23.60;72.30;;;;;;4974242;28;20480;-71
2022/08/02 00:09:35;;;;;;;4.63;1.33;;;23.60;72.60;;;;;;4974010;28;20065;-72
2022/08/02 00:12:01;;;;;;;2.70;1.25;;;23.60;72.10;;;;;;4974088;28;20065;-72
2022/08/02 00:14:26;;;;;;;2.45;1.05;;;23.60;72.60;;;;;;4973992;28;20085;-71
2022/08/02 00:16:52;;;;;;;4.68;1.58;;;23.60;72.90;;;;;;4973915;28;20026;-72
2022/08/02 00:19:18;;;;;;;4.78;1.58;;;23.60;72.40;;;;;;4974057;28;20035;-71
2022/08/02 00:21:43;;;;;;;5.72;1.55;;;23.60;72.50;;;;;;4973963;28;20027;-71
2022/08/02 00:24:09;;;;;;;3.10;1.20;;;23.50;72.70;;;;;;4975322;28;20044;-72
2022/08/02 00:26:35;;;;;;;3.53;1.48;;;23.40;73.00;;;;;;4977856;28;20495;-71
2022/08/02 00:29:00;;;;;;;5.00;2.10;;;23.40;73.10;;;;;;4977793;28;20023;-71
2022/08/02 00:31:26;;;;;;;7.63;1.77;;;23.50;73.10;;;;;;4977581;28;20100;-71
2022/08/02 00:33:51;;;;;;;7.20;1.45;;;23.50;73.20;;;;;;4977598;28;20058;-71
2022/08/02 00:36:17;;;;;;;5.18;1.13;;;23.50;73.60;;;;;;4977810;28;20527;-71
2022/08/02 00:38:43;;;;;;;6.25;1.73;;;23.40;73.50;;;;;;4977832;28;20038;-71
2022/08/02 00:41:17;;;;;;;3.22;1.58;;;23.40;73.50;;;;;;4977621;28;20050;-71
2022/08/02 00:43:45;;;;;;;3.60;1.55;;;23.40;74.20;;;;;;4977892;28;20114;-71
2022/08/02 00:46:11;;;;;;;4.65;1.20;;;23.40;74.20;;;;;;4977171;28;20034;-71
2022/08/02 00:48:36;;;;;;;2.05;1.00;;;23.40;74.40;;;;;;4977589;28;20027;-72
2022/08/02 00:51:02;;;;;;;4.40;1.52;;;23.50;74.50;;;;;;4977363;28;20026;-71
2022/08/02 00:53:28;;;;;;;3.80;1.77;;;23.50;74.20;;;;;;4977257;28;20031;-71
2022/08/02 00:55:54;;;;;;;7.25;1.85;;;23.40;74.20;;;;;;4977350;28;20038;-71
2022/08/02 00:58:19;;;;;;;4.93;1.65;;;23.40;74.40;;;;;;4977379;28;20023;-71
2022/08/02 01:00:45;;;;;;;7.68;1.63;;;23.40;74.50;;;;;;4977058;28;20479;-72
2022/08/02 01:03:11;;;;;;;3.60;1.50;;;23.40;74.80;;;;;;4959874;28;20026;-71
2022/08/02 01:05:36;;;;;;;3.10;1.17;;;23.40;74.90;;;;;;4977158;28;20038;-72
2022/08/02 01:08:03;;;;;;;3.92;1.58;;;23.40;75.20;;;;;;4977287;28;20053;-71
2022/08/02 01:10:29;;;;;;;5.07;1.63;;;23.40;74.90;;;;;;4977066;28;20026;-72
2022/08/02 01:12:54;;;;;;;4.47;1.35;;;23.40;75.10;;;;;;4976835;28;20089;-71
2022/08/02 01:15:21;;;;;;;8.90;1.80;;;23.40;75.10;;;;;;4976796;28;20027;-71
2022/08/02 01:18:01;;;;;;;3.25;1.27;;;23.40;75.20;;;;;;4977007;28;20026;-72
2022/08/02 01:20:45;;;;;;;5.88;1.60;;;23.40;75.40;;;;;;4976843;28;20323;-72
2022/08/02 01:23:37;;;;;;;4.63;1.50;;;23.40;75.20;;;;;;4977026;28;20031;-71
2022/08/02 01:26:30;;;;;;;3.83;1.27;;;23.40;75.60;;;;;;4976584;28;20033;-71
2022/08/02 01:29:06;;;;;;;4.50;1.95;;;23.40;76.00;;;;;;4976808;28;20468;-71
2022/08/02 01:31:33;;;;;;;4.13;1.63;;;23.40;76.20;;;;;;4976832;28;20031;-71
2022/08/02 01:34:14;;;;;;;4.40;1.27;;;23.40;76.40;;;;;;4976771;28;20066;-71
2022/08/02 01:36:45;;;;;;;4.28;1.55;;;23.40;76.70;;;;;;4975724;28;20459;-71
2022/08/02 01:39:14;;;;;;;3.30;1.38;;;23.40;76.80;;;;;;4976561;28;20102;-71
2022/08/02 01:41:41;;;;;;;5.78;2.13;;;23.30;76.80;;;;;;4976358;28;20050;-71
2022/08/02 01:44:09;;;;;;;7.93;2.35;;;23.30;76.90;;;;;;4976521;28;20054;-71
2022/08/02 01:46:40;;;;;;;7.35;2.38;;;23.30;77.10;;;;;;4959018;28;20027;-72
2022/08/02 01:49:09;;;;;;;5.18;2.17;;;23.20;77.30;;;;;;4976352;28;20030;-71
2022/08/02 01:54:23;;;;;;;7.53;2.10;;;23.20;77.70;;;;;;4976688;28;20492;-71
2022/08/02 01:56:50;;;;;;;7.97;1.90;;;23.20;77.80;;;;;;4976506;28;20027;-72
2022/08/02 01:59:19;;;;;;;5.60;1.77;;;23.10;78.00;;;;;;4975977;28;20027;-71
2022/08/02 02:01:48;;;;;;;4.47;1.90;;;23.10;78.10;;;;;;4975977;28;20023;-71
2022/08/02 02:04:14;;;;;;;8.07;2.10;;;23.10;78.10;;;;;;4976043;28;20388;-72
2022/08/02 02:06:43;;;;;;;5.30;2.10;;;23.10;78.30;;;;;;4976110;28;20503;-72
2022/08/02 02:09:10;;;;;;;6.40;2.25;;;23.10;78.40;;;;;;4976162;28;20056;-72
2022/08/02 02:11:35;;;;;;;7.40;2.13;;;23.10;78.50;;;;;;4975784;28;20023;-71
2022/08/02 02:14:02;;;;;;;8.07;2.45;;;23.10;78.60;;;;;;4975653;28;20050;-71
2022/08/02 02:16:30;;;;;;;7.50;2.45;;;23.10;78.70;;;;;;4958472;28;20026;-71
2022/08/02 02:18:58;;;;;;;7.38;1.83;;;23.10;78.70;;;;;;4975944;28;20105;-71
2022/08/02 02:21:24;;;;;;;6.57;1.98;;;23.00;79.00;;;;;;4975585;28;20030;-72
2022/08/02 02:23:49;;;;;;;4.40;1.83;;;23.00;79.20;;;;;;4976052;28;20031;-71
2022/08/02 02:26:17;;;;;;;7.82;2.30;;;23.00;79.20;;;;;;4975658;28;20464;-71
2022/08/02 02:28:46;;;;;;;6.93;2.25;;;23.00;79.30;;;;;;4975481;28;20035;-71
2022/08/02 02:31:20;;;;;;;6.15;1.88;;;23.00;79.40;;;;;;4958263;28;20023;-71
2022/08/02 02:33:49;;;;;;;4.75;2.00;;;23.00;79.60;;;;;;4975505;28;20035;-71
2022/08/02 02:36:17;;;;;;;8.82;2.28;;;23.00;79.60;;;;;;4975696;28;20022;-71
2022/08/02 02:38:44;;;;;;;6.03;2.25;;;23.00;79.60;;;;;;4975523;28;20110;-72
2022/08/02 02:41:11;;;;;;;4.50;2.45;;;23.00;79.70;;;;;;4975518;28;20104;-71
2022/08/02 02:43:38;;;;;;;9.07;2.78;;;23.00;79.70;;;;;;4974930;28;20039;-71
2022/08/02 02:46:06;;;;;;;4.38;2.10;;;22.90;79.80;;;;;;4975446;28;20070;-72
2022/08/02 02:48:32;;;;;;;7.80;2.42;;;22.90;79.80;;;;;;4975163;28;20357;-71
2022/08/02 02:51:02;;;;;;;4.80;2.25;;;22.90;79.90;;;;;;4975311;28;20019;-71
2022/08/02 02:53:29;;;;;;;6.03;2.35;;;22.90;80.20;;;;;;4957883;28;20030;-72
2022/08/02 02:55:55;;;;;;;4.60;2.30;;;22.90;80.30;;;;;;4975289;28;20065;-72
2022/08/02 02:58:22;;;;;;;4.93;2.20;;;22.90;80.40;;;;;;4957524;28;20496;-71
2022/08/02 03:03:34;;;;;;;6.03;2.13;;;22.80;80.40;;;;;;4975114;28;20089;-71
2022/08/02 03:05:59;;;;;;;4.95;2.40;;;22.80;80.70;;;;;;4975081;28;20046;-72
2022/08/02 03:08:25;;;;;;;4.50;2.45;;;22.80;80.80;;;;;;4974928;28;20023;-70
2022/08/02 03:10:53;;;;;;;6.55;2.42;;;22.80;80.70;;;;;;4974720;28;20045;-72
2022/08/02 03:13:19;;;;;;;6.55;3.30;;;22.80;80.90;;;;;;4957041;28;20054;-72
2022/08/02 03:15:46;;;;;;;3.88;2.80;;;22.80;80.90;;;;;;4957496;28;20034;-71
2022/08/02 03:18:36;;;;;;;7.22;3.10;;;22.80;81.10;;;;;;4974843;28;20037;-71
2022/08/02 03:21:04;;;;;;;6.13;2.42;;;22.70;81.30;;;;;;4974946;28;20027;-71
2022/08/02 03:23:30;;;;;;;7.35;3.03;;;22.80;81.50;;;;;;4974419;28;20369;-71
2022/08/02 03:25:56;;;;;;;5.63;3.08;;;22.80;81.50;;;;;;4974322;28;20030;-71
2022/08/02 03:28:22;;;;;;;6.53;3.28;;;22.70;81.50;;;;;;4974708;28;20049;-71
2022/08/02 03:30:48;;;;;;;6.72;3.45;;;22.70;81.60;;;;;;4974684;28;20464;-71
2022/08/02 03:33:14;;;;;;;3.70;3.00;;;22.70;81.70;;;;;;4974511;28;20068;-71
2022/08/02 03:35:41;;;;;;;6.28;2.95;;;22.70;81.80;;;;;;4974627;28;20019;-72
2022/08/02 03:38:07;;;;;;;7.57;3.70;;;22.70;81.90;;;;;;4974375;28;20100;-72
2022/08/02 03:40:35;;;;;;;9.57;3.75;;;22.70;82.00;;;;;;4974247;28;20014;-72
2022/08/02 03:43:01;;;;;;;7.10;3.58;;;22.70;82.10;;;;;;4979806;28;20141;-71
2022/08/02 03:45:29;;;;;;;6.95;3.25;;;22.70;82.10;;;;;;4978870;28;20022;-72
2022/08/02 03:47:56;;;;;;;5.22;2.80;;;22.60;82.10;;;;;;4971580;28;20054;-71
2022/08/02 03:50:22;;;;;;;7.68;3.03;;;22.60;82.20;;;;;;4973314;28;20034;-72
2022/08/02 03:52:48;;;;;;;5.60;3.53;;;22.60;82.30;;;;;;4974170;28;20032;-71
2022/08/02 03:55:14;;;;;;;5.95;3.97;;;22.60;82.60;;;;;;4973839;28;20025;-71
2022/08/02 03:57:41;;;;;;;7.45;4.53;;;22.60;82.80;;;;;;4974282;28;20023;-71
2022/08/02 04:00:08;;;;;;;9.90;4.68;;;22.60;83.10;;;;;;4979554;28;20026;-71
2022/08/02 04:02:35;;;;;;;8.65;5.70;;;22.60;83.20;;;;;;4980732;28;20034;-71
2022/08/02 04:05:01;;;;;;;8.23;5.32;;;22.60;83.60;;;;;;4980637;28;20484;-72
2022/08/02 04:07:27;;;;;;;7.07;5.75;;;22.50;83.80;;;;;;4980604;28;20031;-72
2022/08/02 04:09:52;;;;;;;8.55;5.90;;;22.50;84.20;;;;;;4980434;28;20446;-71
2022/08/02 04:12:18;;;;;;;8.10;6.13;;;22.50;84.50;;;;;;4980813;28;20043;-73
2022/08/02 04:14:44;;;;;;;7.57;6.30;;;22.50;84.70;;;;;;4980437;28;20475;-71
2022/08/02 04:17:12;;;;;;;8.52;5.70;;;22.50;85.00;;;;;;4980774;28;20084;-71
2022/08/02 04:19:46;;;;;;;6.70;4.32;;;22.50;85.30;;;;;;4980297;28;20030;-71
2022/08/02 04:22:18;;;;;;;9.88;5.63;;;22.50;85.30;;;;;;4980514;28;20375;-71
2022/08/02 04:24:54;;;;;;;;;;;22.50;85.80;;;;;;4980489;28;20027;-71
2022/08/02 04:27:22;;;;;;;11.50;6.95;;;22.50;86.00;;;;;;4980636;28;20351;-71
2022/08/02 04:29:48;;;;;;;10.45;7.45;;;22.40;86.20;;;;;;4980347;28;20412;-71
2022/08/02 04:32:16;;;;;;;7.80;5.95;;;22.40;86.60;;;;;;4980359;28;20034;-71
2022/08/02 04:34:42;;;;;;;5.32;3.33;;;22.40;86.50;;;;;;4978807;28;20129;-71
2022/08/02 04:37:10;;;;;;;7.95;5.25;;;22.40;87.20;;;;;;4980376;28;20059;-72
2022/08/02 04:39:36;;;;;;;8.75;7.25;;;22.40;87.00;;;;;;4980076;28;20029;-71
2022/08/02 04:42:01;;;;;;;7.85;6.22;;;22.40;87.30;;;;;;4980344;28;20109;-71
2022/08/02 04:44:28;;;;;;;12.02;7.05;;;22.30;87.60;;;;;;4980173;28;20139;-71
2022/08/02 04:46:54;;;;;;;13.52;6.28;;;22.30;87.60;;;;;;4980318;28;20058;-71
2022/08/02 04:49:20;;;;;;;8.82;6.60;;;22.40;87.70;;;;;;4980587;28;20387;-71
2022/08/02 04:51:46;;;;;;;9.70;5.05;;;22.40;87.90;;;;;;4980094;28;20464;-71
2022/08/02 04:54:11;;;;;;;7.93;5.93;;;22.30;88.10;;;;;;4979878;28;20039;-71
2022/08/02 04:56:38;;;;;;;8.57;6.53;;;22.30;88.20;;;;;;4980287;28;20011;-71
2022/08/02 04:59:04;;;;;;;19.50;6.15;;;22.40;88.40;;;;;;4980081;28;20035;-73
2022/08/02 05:01:30;;;;;;;11.55;6.47;;;22.30;87.60;;;;;;4980280;28;20122;-73
2022/08/02 05:03:56;;;;;;;4.82;3.78;;;22.30;87.60;;;;;;4980202;28;20480;-73
2022/08/02 05:06:21;;;;;;;8.63;5.35;;;22.30;87.60;;;;;;4979140;28;20106;-73
2022/08/02 05:08:48;;;;;;;9.70;6.57;;;22.30;87.70;;;;;;4977634;28;20105;-73
2022/08/02 05:11:13;;;;;;;8.52;5.75;;;22.30;88.00;;;;;;4976994;28;20099;-73
2022/08/02 05:13:43;;;;;;;7.13;6.03;;;22.30;88.00;;;;;;4976897;28;20185;-73
2022/08/02 05:16:08;;;;;;;5.97;4.40;;;22.30;88.20;;;;;;4976999;28;20027;-73
2022/08/02 05:18:34;;;;;;;7.15;5.80;;;22.30;88.20;;;;;;4976922;28;20034;-73
2022/08/02 05:21:00;;;;;;;6.40;4.93;;;22.20;88.40;;;;;;4976704;28;20023;-73
2022/08/02 05:23:26;;;;;;;7.15;4.95;;;22.20;88.70;;;;;;4976583;28;20023;-73
2022/08/02 05:25:52;;;;;;;6.63;4.47;;;22.20;88.80;;;;;;4976795;28;20030;-73
2022/08/02 05:28:17;;;;;;;5.30;4.20;;;22.20;88.80;;;;;;4976846;28;20074;-73
2022/08/02 05:30:43;;;;;;;5.50;3.67;;;22.20;88.90;;;;;;4976544;28;20555;-73
2022/08/02 05:33:09;;;;;;;6.25;4.50;;;22.20;88.70;;;;;;4976707;28;20041;-73
2022/08/02 05:35:34;;;;;;;6.72;5.07;;;22.20;89.00;;;;;;4976423;28;20031;-73
2022/08/02 05:38:00;;;;;;;4.55;3.00;;;22.20;89.10;;;;;;4976743;28;20054;-73
2022/08/02 05:40:26;;;;;;;7.28;5.38;;;22.20;88.40;;;;;;4976606;28;20074;-73
2022/08/02 05:42:53;;;;;;;9.00;6.13;;;22.20;88.80;;;;;;4976671;28;20494;-73
2022/08/02 05:45:18;;;;;;;7.10;5.22;;;22.20;89.20;;;;;;4976511;28;20019;-74
2022/08/02 05:47:44;;;;;;;3.92;2.88;;;22.20;89.00;;;;;;4976569;28;20431;-73
2022/08/02 05:50:10;;;;;;;4.40;2.90;;;22.20;88.80;;;;;;4976152;28;20479;-73
2022/08/02 05:52:43;;;;;;;6.35;4.22;;;22.20;89.30;;;;;;4976273;28;20037;-73
2022/08/02 05:55:26;;;;;;;5.63;4.80;;;22.20;89.60;;;;;;4976281;28;20435;-73
2022/08/02 05:58:03;;;;;;;4.47;3.92;;;22.20;89.60;;;;;;4976170;28;20494;-73
2022/08/02 06:00:30;;;;;;;8.40;6.22;;;22.20;89.40;;;;;;4976302;28;20537;-73
2022/08/02 06:03:17;;;;;;;5.30;3.28;;;22.20;89.70;;;;;;4976015;28;20383;-73
2022/08/02 06:06:11;;;;;;;5.60;4.55;;;22.20;90.00;;;;;;4975796;28;20050;-73
2022/08/02 06:08:41;;;;;;;4.10;3.70;;;22.30;90.00;;;;;;4967155;28;20043;-73
2022/08/02 06:11:14;;;;;;;3.60;3.22;;;22.40;90.20;;;;;;4975908;28;20471;-73
2022/08/02 06:13:42;;;;;;;;;;;22.40;90.10;;;;;;4976248;28;20038;-73
2022/08/02 06:16:09;;;;;;;6.60;4.68;;;22.50;89.70;;;;;;4978459;28;19918;-72
2022/08/02 06:18:35;;;;;;;12.90;3.83;;;22.60;90.10;;;;;;4991705;28;20030;-71
2022/08/02 06:21:03;;;;;;;6.60;3.00;;;22.60;90.20;;;;;;4993539;28;20157;-71
2022/08/02 06:23:30;;;;;;;6.38;2.58;;;22.70;89.70;;;;;;4989066;28;20371;-71
2022/08/02 06:25:57;;;;;;;5.30;3.17;;;22.70;88.60;;;;;;4987349;28;20498;-71
2022/08/02 06:28:23;;;;;;;6.00;3.10;;;22.80;88.90;;;;;;4996314;28;20022;-71
2022/08/02 06:30:49;;;;;;;10.57;3.10;;;22.90;88.80;;;;;;4991031;28;20026;-70
2022/08/02 06:33:15;;;;;;;10.13;3.78;;;22.90;88.50;;;;;;4992244;28;20391;-69
2022/08/02 06:35:50;;;;;;;4.68;3.55;;;23.00;88.00;;;;;;4993601;28;20042;-70
2022/08/02 06:38:23;;;;;;;6.78;3.97;;;23.00;87.40;;;;;;4986106;28;20121;-71
2022/08/02 06:41:01;;;;;;;4.78;3.35;;;23.10;86.90;;;;;;4990456;28;20037;-70
2022/08/02 06:43:41;;;;;;;6.53;3.80;;;23.10;86.70;;;;;;4992922;28;20026;-70
2022/08/02 06:46:06;;;;;;;6.32;3.85;;;23.10;86.60;;;;;;4993105;28;20117;-70
2022/08/02 06:48:34;;;;;;;9.05;3.90;;;23.10;86.50;;;;;;4992010;28;20126;-70
2022/08/02 06:51:04;;;;;;;5.35;3.10;;;23.10;86.50;;;;;;4992891;28;20022;-70
2022/08/02 06:53:30;;;;;;;4.68;3.83;;;23.10;86.30;;;;;;4991742;28;20034;-71
2022/08/02 06:55:56;;;;;;;4.50;2.95;;;23.10;86.30;;;;;;4990549;28;20032;-70
2022/08/02 06:58:22;;;;;;;6.95;3.13;;;23.10;86.40;;;;;;4990592;28;20034;-70
2022/08/02 07:00:48;;;;;;;9.88;3.45;;;23.20;86.30;;;;;;4976487;28;20035;-70
2022/08/02 07:03:14;;;;;;;7.93;3.08;;;23.20;86.10;;;;;;4967676;28;20535;-70
2022/08/02 07:05:40;;;;;;;4.85;2.80;;;23.20;86.00;;;;;;4984257;28;20101;-70
2022/08/02 07:08:07;;;;;;;7.22;3.20;;;23.20;85.80;;;;;;4972991;28;20030;-71
2022/08/02 07:10:32;;;;;;;8.60;3.40;;;23.30;85.90;;;;;;4968816;28;20022;-70
2022/08/02 07:12:58;;;;;;;8.82;2.92;;;23.30;85.80;;;;;;4988022;28;20035;-70
2022/08/02 07:15:24;;;;;;;6.13;3.15;;;23.30;85.50;;;;;;4988976;28;20045;-70
2022/08/02 07:17:50;;;;;;;6.80;2.90;;;23.30;85.50;;;;;;4988580;28;20030;-70
2022/08/02 07:20:15;;;;;;;6.55;2.72;;;23.30;85.40;;;;;;4991562;28;20037;-71
2022/08/02 07:22:41;;;;;;;8.35;3.08;;;23.40;86.00;;;;;;4993523;28;20026;-70
2022/08/02 07:25:07;;;;;;;5.25;2.88;;;23.40;85.10;;;;;;4992280;28;20038;-70
2022/08/02 07:27:33;;;;;;;5.05;3.22;;;23.40;85.10;;;;;;4988570;28;20092;-70
2022/08/02 07:29:59;;;;;;;5.03;2.78;;;23.40;85.10;;;;;;4989698;28;20491;-70
2022/08/02 07:32:29;;;;;;;3.47;2.83;;;23.50;85.10;;;;;;4992356;28;20027;-70
2022/08/02 07:34:55;;;;;;;5.47;3.50;;;23.50;84.90;;;;;;4973346;28;20448;-71
2022/08/02 07:37:23;;;;;;;4.82;2.55;;;23.50;84.70;;;;;;4986610;28;20507;-70
2022/08/02 07:39:49;;;;;;;5.38;2.70;;;23.50;84.50;;;;;;4986587;28;20113;-70
2022/08/02 07:42:14;;;;;;;4.65;2.88;;;23.60;84.60;;;;;;4988269;28;20109;-70
2022/08/02 07:44:40;;;;;;;4.25;3.00;;;23.60;84.10;;;;;;4995982;28;20073;-70
2022/08/02 07:47:05;;;;;;;4.68;2.30;;;23.60;83.70;;;;;;4993712;28;20030;-70
2022/08/02 07:49:31;;;;;;;4.53;2.20;;;23.70;83.60;;;;;;4985740;28;20019;-70
2022/08/02 07:51:57;;;;;;;3.40;2.30;;;23.70;83.40;;;;;;4994447;28;20157;-70
2022/08/02 07:54:23;;;;;;;3.15;2.28;;;23.70;83.10;;;;;;4995210;28;20486;-70
2022/08/02 07:56:48;;;;;;;5.68;2.05;;;23.70;82.70;;;;;;4994792;28;20459;-70
2022/08/02 07:59:14;;;;;;;3.50;1.90;;;23.70;82.60;;;;;;4991879;28;20029;-70
2022/08/02 08:01:40;;;;;;;6.43;2.10;;;23.70;82.60;;;;;;4995436;28;20379;-70
2022/08/02 08:04:06;;;;;;;3.88;2.13;;;23.80;82.60;;;;;;4996463;28;20057;-70
2022/08/02 08:06:32;;;;;;;3.15;2.00;;;23.80;82.70;;;;;;4993083;28;20500;-71
2022/08/02 08:08:58;;;;;;;4.75;2.03;;;23.90;82.80;;;;;;4993336;28;20041;-70
2022/08/02 08:11:24;;;;;;;5.25;1.75;;;23.90;82.60;;;;;;4982685;28;20033;-69
2022/08/02 08:13:49;;;;;;;5.50;1.90;;;23.90;82.30;;;;;;4985120;28;20050;-70
2022/08/02 08:16:15;;;;;;;2.78;1.42;;;23.90;82.30;;;;;;4970411;28;20130;-70
2022/08/02 08:18:41;;;;;;;5.60;1.67;;;23.90;82.00;;;;;;5000093;28;20023;-69
2022/08/02 08:21:07;;;;;;;2.40;1.33;;;24.00;81.60;;;;;;4995568;28;20464;-70
2022/08/02 08:23:33;;;;;;;4.25;1.45;;;24.00;81.10;;;;;;4991986;28;20034;-69
2022/08/02 08:25:59;;;;;;;2.80;1.65;;;24.00;80.90;;;;;;4989358;28;20415;-70
2022/08/02 08:28:25;;;;;;;4.18;1.58;;;24.00;80.40;;;;;;4994384;28;20026;-69
2022/08/02 08:30:50;;;;;;;4.97;1.50;;;24.10;80.10;;;;;;4989343;28;20041;-70
2022/08/02 08:33:16;;;;;;;3.90;1.30;;;24.10;80.30;;;;;;4988807;28;20042;-69
2022/08/02 08:35:41;;;;;;;3.92;1.30;;;24.10;80.10;;;;;;4968981;28;20042;-69
2022/08/02 08:38:07;;;;;;;3.85;1.65;;;24.10;79.80;;;;;;4989477;28;20104;-70
2022/08/02 08:40:33;;;;;;;5.00;1.17;;;24.10;79.40;;;;;;4983649;28;20042;-70
2022/08/02 08:42:58;;;;;;;3.53;1.13;;;24.10;79.20;;;;;;4970316;28;20383;-70
2022/08/02 08:45:24;;;;;;;3.45;1.38;;;24.20;78.60;;;;;;4988366;28;20038;-68
2022/08/02 08:48:05;;;;;;;1.80;0.90;;;24.20;77.90;;;;;;4990864;28;20030;-70
2022/08/02 08:50:35;;;;;;;3.45;0.82;;;24.20;78.10;;;;;;4988620;28;20120;-70
2022/08/02 08:53:06;;;;;;;3.55;0.93;;;24.20;76.40;;;;;;4969275;28;20038;-69
2022/08/02 08:55:34;;;;;;;1.70;0.90;;;24.20;75.90;;;;;;4990722;28;20065;-70
2022/08/02 08:58:01;;;;;;;3.28;0.93;;;24.20;75.40;;;;;;4994101;28;20073;-70
2022/08/02 09:00:29;;;;;;;4.15;1.10;;;24.30;74.90;;;;;;4986149;28;20031;-70
2022/08/02 09:02:55;;;;;;;3.50;0.98;;;24.30;74.60;;;;;;4994572;28;20031;-70
2022/08/02 09:05:21;;;;;;;1.95;0.93;;;24.30;73.70;;;;;;4979922;28;20502;-70
2022/08/02 09:07:49;;;;;;;3.53;0.77;;;24.30;73.20;;;;;;5001132;28;20054;-70
2022/08/02 09:10:41;;;;;;;4.75;0.90;;;24.30;72.40;;;;;;4993198;28;20030;-71
2022/08/02 09:13:06;;;;;;;3.60;0.88;;;24.40;72.10;;;;;;4986392;28;20038;-70
2022/08/02 09:15:32;;;;;;;3.58;0.47;;;24.40;72.30;;;;;;4993828;28;20035;-69
2022/08/02 09:17:58;;;;;;;4.90;0.88;;;24.40;71.30;;;;;;4990934;28;20487;-71
2022/08/02 09:20:23;;;;;;;7.28;1.10;;;24.40;71.90;;;;;;4984515;28;20057;-70
2022/08/02 09:23:10;;;;;;;4.35;0.60;;;24.40;71.80;;;;;;4984423;28;20061;-70
2022/08/02 09:25:36;;;;;;;2.35;0.77;;;24.40;71.90;;;;;;4986797;28;20093;-71
2022/08/02 09:28:03;;;;;;;4.28;0.70;;;24.40;71.50;;;;;;4988008;28;20014;-70
2022/08/02 09:30:29;;;;;;;4.70;0.93;;;24.40;70.80;;;;;;4972702;28;20033;-71
2022/08/02 09:32:55;;;;;;;2.05;0.90;;;24.40;70.70;;;;;;4990762;28;20030;-70
2022/08/02 09:35:34;;;;;;;3.17;0.63;;;24.50;70.70;;;;;;4986474;28;20092;-71
2022/08/02 09:38:13;;;;;;;1.63;0.60;;;24.50;70.50;;;;;;4971403;28;20023;-72
2022/08/02 09:40:40;;;;;;;5.03;0.80;;;24.50;70.00;;;;;;4989615;28;20062;-70
2022/08/02 09:43:07;;;;;;;3.22;0.65;;;24.50;70.00;;;;;;4991087;28;20023;-70
2022/08/02 09:45:35;;;;;;;2.20;0.57;;;24.50;70.10;;;;;;4993496;28;20054;-71
2022/08/02 09:48:10;;;;;;;3.22;0.70;;;24.50;70.20;;;;;;4993126;28;20019;-71
2022/08/02 09:50:37;;;;;;;1.15;0.63;;;24.50;70.00;;;;;;4992627;28;20494;-71
2022/08/02 09:53:03;;;;;;;1.80;0.60;;;24.60;70.10;;;;;;4991245;28;20486;-70
2022/08/02 09:55:29;;;;;;;3.08;0.80;;;24.60;70.20;;;;;;4992675;28;20113;-70
2022/08/02 09:57:55;;;;;;;4.15;0.77;;;24.50;70.30;;;;;;4995070;28;20117;-70
2022/08/02 10:00:21;;;;;;;3.10;0.85;;;24.50;70.40;;;;;;4996959;28;20085;-69
2022/08/02 10:03:05;;;;;;;2.80;0.40;;;24.60;70.30;;;;;;4989065;28;20096;-71
2022/08/02 10:05:45;;;;;;;2.17;0.50;;;24.60;70.10;;;;;;4991629;28;20034;-69
2022/08/02 10:08:14;;;;;;;3.28;0.70;;;24.60;70.20;;;;;;4998157;28;20037;-71
2022/08/02 10:10:41;;;;;;;3.47;0.65;;;24.70;70.10;;;;;;4985888;28;20072;-70
2022/08/02 10:13:08;;;;;;;1.42;0.60;;;24.60;70.20;;;;;;4983580;28;20065;-71
2022/08/02 10:15:38;;;;;;;2.78;0.47;;;24.70;70.10;;;;;;4974970;28;20045;-70
2022/08/02 10:18:07;;;;;;;1.45;0.70;;;24.70;70.00;;;;;;4993016;28;20490;-70
2022/08/02 10:20:42;;;;;;;2.65;1.00;;;24.70;70.00;;;;;;4989588;28;20023;-72
2022/08/02 10:23:11;;;;;;;4.03;0.60;;;24.70;69.60;;;;;;4988020;28;20430;-72
2022/08/02 10:25:38;;;;;;;2.92;0.88;;;24.80;69.60;;;;;;4989386;28;20033;-70
2022/08/02 10:28:06;;;;;;;2.67;0.82;;;24.80;69.90;;;;;;4993438;28;20502;-72
2022/08/02 10:30:36;;;;;;;2.22;1.00;;;24.80;70.60;;;;;;4992378;28;20029;-70
2022/08/02 10:33:04;;;;;;;2.75;0.82;;;24.80;71.10;;;;;;4993033;28;20432;-69
2022/08/02 10:35:35;;;;;;;5.78;0.90;;;24.80;71.10;;;;;;4985791;28;20039;-69
2022/08/02 10:38:06;;;;;;;2.70;0.65;;;24.80;71.40;;;;;;4982164;28;20027;-70
2022/08/02 10:40:47;;;;;;;1.60;0.80;;;24.80;71.50;;;;;;4981820;28;20105;-70
2022/08/02 10:43:32;;;;;;;2.58;0.90;;;24.90;71.60;;;;;;4982531;28;20037;-69
2022/08/02 10:46:20;;;;;;;4.20;0.98;;;24.90;71.30;;;;;;4975120;28;20090;-70
2022/08/02 10:49:06;;;;;;;2.75;0.90;;;24.90;71.20;;;;;;4988599;28;20026;-70
2022/08/02 10:51:50;;;;;;;4.82;0.70;;;24.90;70.90;;;;;;4982884;28;20045;-69
2022/08/02 10:54:21;;;;;;;2.65;0.73;;;25.00;71.70;;;;;;4991807;28;20042;-72
2022/08/02 10:56:48;;;;;;;2.38;0.60;;;25.00;71.80;;;;;;4991836;28;20530;-71
2022/08/02 10:59:27;;;;;;;5.05;0.90;;;25.00;72.70;;;;;;4987451;28;20671;-71
2022/08/02 11:02:03;;;;;;;3.92;0.68;;;25.00;73.10;;;;;;4983424;28;20023;-73
2022/08/02 11:04:38;;;;;;;4.00;1.20;;;25.00;73.50;;;;;;4987606;28;20052;-71
2022/08/02 11:07:09;;;;;;;3.30;0.73;;;25.10;75.80;;;;;;4991940;28;20034;-72
2022/08/02 11:09:35;;;;;;;1.88;0.90;;;25.10;77.10;;;;;;4991656;28;20077;-71
2022/08/02 11:12:09;;;;;;;2.13;0.90;;;25.10;77.80;;;;;;4989806;28;20054;-71
2022/08/02 11:14:37;;;;;;;2.40;0.70;;;25.20;78.10;;;;;;4993306;28;20034;-73
2022/08/02 11:17:04;;;;;;;2.78;0.82;;;25.20;77.90;;;;;;4990838;28;20098;-71
2022/08/02 11:19:30;;;;;;;2.38;0.82;;;25.20;77.30;;;;;;4971655;28;20033;-71
2022/08/02 11:22:10;;;;;;;3.42;0.90;;;25.20;77.10;;;;;;4986934;28;20050;-71
2022/08/02 11:24:39;;;;;;;3.15;0.98;;;25.20;77.50;;;;;;4987116;28;20085;-71
2022/08/02 11:27:07;;;;;;;2.72;0.82;;;25.30;76.90;;;;;;4988488;28;20463;-72
2022/08/02 11:29:41;;;;;;;4.95;0.80;;;25.20;76.40;;;;;;4990272;28;20033;-71
2022/08/02 11:32:13;;;;;;;2.40;0.65;;;25.20;76.10;;;;;;4990918;28;20360;-71
2022/08/02 11:34:41;;;;;;;4.22;0.60;;;25.30;76.20;;;;;;4990640;28;20037;-71
2022/08/02 11:37:06;;;;;;;2.17;0.60;;;25.30;75.80;;;;;;4992934;28;20072;-71
2022/08/02 11:39:32;;;;;;;1.73;0.80;;;25.20;75.60;;;;;;4983485;28;20018;-70
2022/08/02 11:41:59;;;;;;;6.45;1.10;;;25.30;75.60;;;;;;4981228;28;20027;-72
2022/08/02 11:44:27;;;;;;;3.03;0.90;;;25.30;75.80;;;;;;4968586;28;20057;-72
2022/08/02 11:47:00;;;;;;;5.90;0.68;;;25.30;75.80;;;;;;4988445;28;20071;-71
2022/08/02 11:49:26;;;;;;;2.50;0.70;;;25.30;75.80;;;;;;4982804;28;20054;-71
2022/08/02 11:51:59;;;;;;;4.20;0.85;;;25.30;75.80;;;;;;4985795;28;20061;-71
2022/08/02 11:54:30;;;;;;;3.08;0.80;;;25.30;75.80;;;;;;4987872;28;20050;-71
2022/08/02 11:57:16;;;;;;;4.55;0.70;;;25.30;75.50;;;;;;4985650;28;20062;-71
2022/08/02 11:59:43;;;;;;;4.93;0.88;;;25.30;75.40;;;;;;4984886;28;20057;-71
2022/08/02 12:02:10;;;;;;;4.30;1.00;;;25.40;75.30;;;;;;4981841;28;20031;-71
2022/08/02 12:04:36;;;;;;;1.50;0.50;;;25.40;75.30;;;;;;4984994;28;20030;-71
2022/08/02 12:07:03;;;;;;;4.35;0.82;;;25.40;75.20;;;;;;4988182;28;20034;-72
2022/08/02 12:09:32;;;;;;;3.50;0.73;;;25.40;75.40;;;;;;4987502;28;20046;-71
2022/08/02 12:12:00;;;;;;;2.65;0.75;;;25.40;75.10;;;;;;4985358;28;20345;-70
2022/08/02 12:14:27;;;;;;;2.78;0.50;;;25.40;75.00;;;;;;4990495;28;20043;-71
2022/08/02 12:19:39;;;;;;;1.15;0.60;;;25.40;75.10;;;;;;5012079;28;20045;-71
2022/08/02 12:22:07;;;;;;;3.50;0.55;;;25.40;75.00;;;;;;4996406;28;20456;-71
2022/08/02 12:24:33;;;;;;;2.63;0.60;;;25.40;75.10;;;;;;4990304;28;20030;-70
2022/08/02 12:26:59;;;;;;;1.80;0.60;;;25.50;74.90;;;;;;4989384;28;20170;-70
2022/08/02 12:29:29;;;;;;;2.95;0.68;;;25.50;75.20;;;;;;4996775;28;20536;-71
2022/08/02 12:31:55;;;;;;;2.22;0.60;;;25.50;75.40;;;;;;4993454;28;20030;-71
2022/08/02 12:34:21;;;;;;;3.08;0.80;;;25.50;75.60;;;;;;4991270;28;20108;-71
2022/08/02 12:37:06;;;;;;;3.60;0.57;;;25.50;75.70;;;;;;4989841;28;20030;-71
2022/08/02 12:39:37;;;;;;;1.63;0.57;;;25.50;75.70;;;;;;4992909;28;20542;-71
2022/08/02 12:42:04;;;;;;;3.28;0.90;;;25.50;75.70;;;;;;4991978;28;20023;-71
2022/08/02 12:44:30;;;;;;;1.90;0.68;;;25.50;75.80;;;;;;4977252;28;20468;-71
2022/08/02 12:47:08;;;;;;;2.10;0.73;;;25.50;76.00;;;;;;4995051;28;20019;-71
2022/08/02 12:49:34;;;;;;;3.13;0.85;;;25.50;76.00;;;;;;4972211;28;20127;-71
2022/08/02 12:52:00;;;;;;;1.80;0.80;;;25.60;75.90;;;;;;4991329;28;20304;-70
2022/08/02 12:54:38;;;;;;;4.05;0.77;;;25.60;75.90;;;;;;4997454;28;20025;-69
2022/08/02 12:57:12;;;;;;;5.13;0.82;;;25.70;76.00;;;;;;4988874;28;20435;-71
2022/08/02 12:59:39;;;;;;;2.63;0.73;;;25.70;76.20;;;;;;4988934;28;20034;-72
2022/08/02 13:02:07;;;;;;;2.50;0.57;;;25.60;76.20;;;;;;4987925;28;20448;-73
2022/08/02 13:04:33;;;;;;;3.47;0.82;;;25.70;76.50;;;;;;4990087;28;20034;-73